Terminal Aerodrome Forecast
Issued by NWS

Current Version | Previous Version | Text Only | Print | Product List | Glossary On
Versions: 1 2 3 4 5 6 7 8 9 10 11 12 13 14 15 16 17 18 19 20 21 22 23 24 25 26 27 28
259
FTUS41 KLWX 131126
TAFMTN
TAF
KMTN 131126Z 1312/1412 12006KT P6SM BKN009
     FM131300 VRB03KT P6SM SCT060
     FM132200 17007KT P6SM BKN090
     FM140400 18004KT P6SM BKN025
     FM140600 17004KT P6SM BKN010=

USA.gov is the U.S. government's official web portal to all federal, state and local government web resources and services.